sensor_id;sensor_type;location;lat;lon;timestamp;pressure;altitude;pressure_sealevel;temperature;humidity
75745;BME280;64359;51.366;-0.222;2023-06-14T00:00:58;101294.11;;;25.46;45.85
75745;BME280;64359;51.366;-0.222;2023-06-14T00:02:03;101294.95;;;25.47;45.75
75745;BME280;64359;51.366;-0.222;2023-06-14T00:03:07;101296.13;;;25.46;45.71
75745;BME280;64359;51.366;-0.222;2023-06-14T00:04:12;101294.27;;;25.47;45.79
75745;BME280;64359;51.366;-0.222;2023-06-14T00:05:19;101294.33;;;25.46;45.83
75745;BME280;64359;51.366;-0.222;2023-06-14T00:06:26;101296.17;;;25.46;45.87
75745;BME280;64359;51.366;-0.222;2023-06-14T00:07:36;101296.04;;;25.46;45.84
75745;BME280;64359;51.366;-0.222;2023-06-14T00:08:41;101293.02;;;25.45;45.90
75745;BME280;64359;51.366;-0.222;2023-06-14T00:09:45;101293.36;;;25.45;45.98
75745;BME280;64359;51.366;-0.222;2023-06-14T00:10:50;101294.48;;;25.45;45.91
75745;BME280;64359;51.366;-0.222;2023-06-14T00:11:54;101293.81;;;25.45;45.83
75745;BME280;64359;51.366;-0.222;2023-06-14T00:12:58;101294.19;;;25.45;45.96
75745;BME280;64359;51.366;-0.222;2023-06-14T00:14:03;101293.98;;;25.45;45.91
75745;BME280;64359;51.366;-0.222;2023-06-14T00:15:09;101292.27;;;25.44;45.89
75745;BME280;64359;51.366;-0.222;2023-06-14T00:16:13;101295.73;;;25.44;45.98
75745;BME280;64359;51.366;-0.222;2023-06-14T00:17:19;101294.57;;;25.44;45.88
75745;BME280;64359;51.366;-0.222;2023-06-14T00:18:24;101294.19;;;25.43;45.93
75745;BME280;64359;51.366;-0.222;2023-06-14T00:19:32;101294.61;;;25.43;45.86
75745;BME280;64359;51.366;-0.222;2023-06-14T00:20:38;101293.39;;;25.43;45.88
75745;BME280;64359;51.366;-0.222;2023-06-14T00:21:44;101292.89;;;25.42;45.96
75745;BME280;64359;51.366;-0.222;2023-06-14T00:22:49;101294.31;;;25.42;45.94
75745;BME280;64359;51.366;-0.222;2023-06-14T00:23:55;101291.45;;;25.42;45.94
75745;BME280;64359;51.366;-0.222;2023-06-14T00:24:59;101292.42;;;25.42;45.87
75745;BME280;64359;51.366;-0.222;2023-06-14T00:26:03;101294.05;;;25.42;45.94
75745;BME280;64359;51.366;-0.222;2023-06-14T00:27:08;101292.64;;;25.41;45.83
75745;BME280;64359;51.366;-0.222;2023-06-14T00:28:13;101294.52;;;25.41;45.81
75745;BME280;64359;51.366;-0.222;2023-06-14T00:29:17;101293.30;;;25.40;45.79
75745;BME280;64359;51.366;-0.222;2023-06-14T00:30:22;101292.34;;;25.41;45.88
75745;BME280;64359;51.366;-0.222;2023-06-14T00:31:26;101296.23;;;25.40;45.85
75745;BME280;64359;51.366;-0.222;2023-06-14T00:32:31;101296.95;;;25.40;45.81
75745;BME280;64359;51.366;-0.222;2023-06-14T00:33:35;101294.11;;;25.40;45.91
75745;BME280;64359;51.366;-0.222;2023-06-14T00:34:39;101299.23;;;25.40;45.79
75745;BME280;64359;51.366;-0.222;2023-06-14T00:35:44;101300.69;;;25.39;45.78
75745;BME280;64359;51.366;-0.222;2023-06-14T00:36:48;101298.55;;;25.39;45.83
75745;BME280;64359;51.366;-0.222;2023-06-14T00:37:52;101298.39;;;25.39;45.55
75745;BME280;64359;51.366;-0.222;2023-06-14T00:38:57;101301.27;;;25.39;45.55
75745;BME280;64359;51.366;-0.222;2023-06-14T00:40:02;101303.33;;;25.38;45.33
75745;BME280;64359;51.366;-0.222;2023-06-14T00:41:07;101301.45;;;25.38;45.45
75745;BME280;64359;51.366;-0.222;2023-06-14T00:42:12;101301.98;;;25.38;45.47
75745;BME280;64359;51.366;-0.222;2023-06-14T00:43:26;101303.16;;;25.37;45.18
75745;BME280;64359;51.366;-0.222;2023-06-14T00:44:31;101303.20;;;25.37;45.25
75745;BME280;64359;51.366;-0.222;2023-06-14T00:45:35;101300.52;;;25.37;45.24
75745;BME280;64359;51.366;-0.222;2023-06-14T00:46:39;101300.02;;;25.36;45.26
75745;BME280;64359;51.366;-0.222;2023-06-14T00:47:44;101300.39;;;25.36;45.17
75745;BME280;64359;51.366;-0.222;2023-06-14T00:48:50;101302.86;;;25.35;45.23
75745;BME280;64359;51.366;-0.222;2023-06-14T00:49:55;101303.58;;;25.36;45.15
75745;BME280;64359;51.366;-0.222;2023-06-14T00:51:01;101306.86;;;25.36;45.20
75745;BME280;64359;51.366;-0.222;2023-06-14T00:52:08;101305.42;;;25.35;45.24
75745;BME280;64359;51.366;-0.222;2023-06-14T00:53:15;101307.60;;;25.35;45.37
75745;BME280;64359;51.366;-0.222;2023-06-14T00:54:20;101309.83;;;25.35;45.17
75745;BME280;64359;51.366;-0.222;2023-06-14T00:55:24;101307.19;;;25.34;45.26
75745;BME280;64359;51.366;-0.222;2023-06-14T00:56:29;101309.33;;;25.35;45.17
75745;BME280;64359;51.366;-0.222;2023-06-14T00:57:34;101310.29;;;25.34;45.15
75745;BME280;64359;51.366;-0.222;2023-06-14T00:58:40;101312.35;;;25.34;45.31
75745;BME280;64359;51.366;-0.222;2023-06-14T00:59:46;101311.80;;;25.34;45.21
75745;BME280;64359;51.366;-0.222;2023-06-14T01:00:51;101312.10;;;25.33;45.18
75745;BME280;64359;51.366;-0.222;2023-06-14T01:01:55;101310.67;;;25.33;45.07
75745;BME280;64359;51.366;-0.222;2023-06-14T01:02:59;101309.99;;;25.32;44.99
75745;BME280;64359;51.366;-0.222;2023-06-14T01:04:04;101310.25;;;25.33;45.17
75745;BME280;64359;51.366;-0.222;2023-06-14T01:05:09;101308.35;;;25.32;45.19
75745;BME280;64359;51.366;-0.222;2023-06-14T01:06:20;101308.73;;;25.32;45.04
75745;BME280;64359;51.366;-0.222;2023-06-14T01:07:49;101308.05;;;25.32;45.06
75745;BME280;64359;51.366;-0.222;2023-06-14T01:09:06;101307.15;;;25.30;45.08
75745;BME280;64359;51.366;-0.222;2023-06-14T01:10:26;101309.04;;;25.30;45.29
75745;BME280;64359;51.366;-0.222;2023-06-14T01:11:36;101311.17;;;25.29;45.12
75745;BME280;64359;51.366;-0.222;2023-06-14T01:12:48;101312.47;;;25.26;45.20
75745;BME280;64359;51.366;-0.222;2023-06-14T01:13:57;101312.00;;;25.26;45.41
75745;BME280;64359;51.366;-0.222;2023-06-14T01:15:04;101310.40;;;25.25;45.26
75745;BME280;64359;51.366;-0.222;2023-06-14T01:16:11;101309.81;;;25.24;45.04
75745;BME280;64359;51.366;-0.222;2023-06-14T01:17:15;101313.89;;;25.25;45.29
75745;BME280;64359;51.366;-0.222;2023-06-14T01:18:21;101311.04;;;25.25;45.21
75745;BME280;64359;51.366;-0.222;2023-06-14T01:19:29;101314.09;;;25.25;45.21
75745;BME280;64359;51.366;-0.222;2023-06-14T01:20:35;101315.09;;;25.23;45.24
75745;BME280;64359;51.366;-0.222;2023-06-14T01:21:40;101319.21;;;25.25;45.30
75745;BME280;64359;51.366;-0.222;2023-06-14T01:22:51;101320.69;;;25.25;45.24
75745;BME280;64359;51.366;-0.222;2023-06-14T01:23:56;101317.29;;;25.24;45.32
75745;BME280;64359;51.366;-0.222;2023-06-14T01:25:00;101318.41;;;25.24;45.14
75745;BME280;64359;51.366;-0.222;2023-06-14T01:26:05;101318.29;;;25.24;44.88
75745;BME280;64359;51.366;-0.222;2023-06-14T01:27:09;101320.27;;;25.24;44.77
75745;BME280;64359;51.366;-0.222;2023-06-14T01:28:16;101318.71;;;25.23;44.73
75745;BME280;64359;51.366;-0.222;2023-06-14T01:29:21;101318.79;;;25.22;44.71
75745;BME280;64359;51.366;-0.222;2023-06-14T01:30:26;101317.20;;;25.22;44.65
75745;BME280;64359;51.366;-0.222;2023-06-14T01:31:31;101318.11;;;25.22;44.54
75745;BME280;64359;51.366;-0.222;2023-06-14T01:32:44;101319.91;;;25.21;44.40
75745;BME280;64359;51.366;-0.222;2023-06-14T01:33:50;101319.33;;;25.21;44.33
75745;BME280;64359;51.366;-0.222;2023-06-14T01:34:55;101321.39;;;25.21;44.44
75745;BME280;64359;51.366;-0.222;2023-06-14T01:36:00;101317.20;;;25.21;44.48
75745;BME280;64359;51.366;-0.222;2023-06-14T01:37:06;101321.52;;;25.21;44.43
75745;BME280;64359;51.366;-0.222;2023-06-14T01:38:10;101318.33;;;25.20;44.29
75745;BME280;64359;51.366;-0.222;2023-06-14T01:39:16;101319.04;;;25.21;44.29
75745;BME280;64359;51.366;-0.222;2023-06-14T01:40:22;101317.14;;;25.20;44.44
75745;BME280;64359;51.366;-0.222;2023-06-14T01:41:28;101314.45;;;25.20;44.19
75745;BME280;64359;51.366;-0.222;2023-06-14T01:42:33;101315.17;;;25.20;44.13
75745;BME280;64359;51.366;-0.222;2023-06-14T01:43:40;101319.53;;;25.20;44.25
75745;BME280;64359;51.366;-0.222;2023-06-14T01:44:45;101317.56;;;25.20;44.22
75745;BME280;64359;51.366;-0.222;2023-06-14T01:45:52;101312.36;;;25.19;44.31
75745;BME280;64359;51.366;-0.222;2023-06-14T01:46:58;101314.25;;;25.19;44.06
75745;BME280;64359;51.366;-0.222;2023-06-14T01:48:03;101316.05;;;25.19;44.08
75745;BME280;64359;51.366;-0.222;2023-06-14T01:49:08;101316.48;;;25.18;43.94
75745;BME280;64359;51.366;-0.222;2023-06-14T01:50:12;101309.97;;;25.18;44.02
75745;BME280;64359;51.366;-0.222;2023-06-14T01:51:17;101311.69;;;25.17;43.96
75745;BME280;64359;51.366;-0.222;2023-06-14T01:52:21;101315.71;;;25.17;43.75
75745;BME280;64359;51.366;-0.222;2023-06-14T01:53:27;101313.95;;;25.17;43.87
75745;BME280;64359;51.366;-0.222;2023-06-14T01:54:31;101310.42;;;25.17;43.71
75745;BME280;64359;51.366;-0.222;2023-06-14T01:55:36;101309.61;;;25.15;43.69
75745;BME280;64359;51.366;-0.222;2023-06-14T01:56:41;101306.21;;;25.14;43.90
75745;BME280;64359;51.366;-0.222;2023-06-14T01:57:45;101310.55;;;25.16;43.76
75745;BME280;64359;51.366;-0.222;2023-06-14T01:58:49;101307.23;;;25.14;43.71
75745;BME280;64359;51.366;-0.222;2023-06-14T01:59:54;101306.86;;;25.15;43.68
75745;BME280;64359;51.366;-0.222;2023-06-14T02:00:59;101305.22;;;25.15;43.51
75745;BME280;64359;51.366;-0.222;2023-06-14T02:02:04;101306.31;;;25.15;43.50
75745;BME280;64359;51.366;-0.222;2023-06-14T02:03:09;101302.37;;;25.15;43.52
75745;BME280;64359;51.366;-0.222;2023-06-14T02:04:14;101299.71;;;25.14;43.52
75745;BME280;64359;51.366;-0.222;2023-06-14T02:05:19;101300.61;;;25.15;43.55
75745;BME280;64359;51.366;-0.222;2023-06-14T02:06:26;101296.02;;;25.12;43.66
75745;BME280;64359;51.366;-0.222;2023-06-14T02:07:30;101299.80;;;25.14;43.73
75745;BME280;64359;51.366;-0.222;2023-06-14T02:08:35;101304.20;;;25.13;43.67
75745;BME280;64359;51.366;-0.222;2023-06-14T02:09:40;101298.38;;;25.13;43.55
75745;BME280;64359;51.366;-0.222;2023-06-14T02:10:44;101298.25;;;25.13;43.62
75745;BME280;64359;51.366;-0.222;2023-06-14T02:11:48;101295.73;;;25.13;43.58
75745;BME280;64359;51.366;-0.222;2023-06-14T02:12:53;101298.54;;;25.12;43.55
75745;BME280;64359;51.366;-0.222;2023-06-14T02:13:57;101295.64;;;25.12;43.52
75745;BME280;64359;51.366;-0.222;2023-06-14T02:15:03;101297.16;;;25.12;43.41
75745;BME280;64359;51.366;-0.222;2023-06-14T02:16:09;101294.39;;;25.12;43.42
75745;BME280;64359;51.366;-0.222;2023-06-14T02:17:13;101292.24;;;25.10;43.46
75745;BME280;64359;51.366;-0.222;2023-06-14T02:18:17;101292.88;;;25.11;43.56
75745;BME280;64359;51.366;-0.222;2023-06-14T02:19:22;101292.25;;;25.10;43.59
75745;BME280;64359;51.366;-0.222;2023-06-14T02:20:27;101291.20;;;25.10;43.45
75745;BME280;64359;51.366;-0.222;2023-06-14T02:21:31;101292.70;;;25.09;43.43
75745;BME280;64359;51.366;-0.222;2023-06-14T02:22:35;101292.41;;;25.09;43.44
75745;BME280;64359;51.366;-0.222;2023-06-14T02:23:40;101297.52;;;25.08;43.37
75745;BME280;64359;51.366;-0.222;2023-06-14T02:24:44;101297.59;;;25.08;43.37
75745;BME280;64359;51.366;-0.222;2023-06-14T02:25:48;101298.02;;;25.08;43.35
75745;BME280;64359;51.366;-0.222;2023-06-14T02:26:53;101300.31;;;25.08;43.63
75745;BME280;64359;51.366;-0.222;2023-06-14T02:27:57;101302.71;;;25.08;43.49
75745;BME280;64359;51.366;-0.222;2023-06-14T02:29:02;101299.69;;;25.07;43.46
75745;BME280;64359;51.366;-0.222;2023-06-14T02:30:08;101298.77;;;25.07;43.44
75745;BME280;64359;51.366;-0.222;2023-06-14T02:31:12;101299.30;;;25.07;43.66
75745;BME280;64359;51.366;-0.222;2023-06-14T02:32:16;101296.36;;;25.06;43.59
75745;BME280;64359;51.366;-0.222;2023-06-14T02:33:21;101296.39;;;25.06;43.67
75745;BME280;64359;51.366;-0.222;2023-06-14T02:34:25;101294.97;;;25.06;43.65
75745;BME280;64359;51.366;-0.222;2023-06-14T02:35:31;101296.05;;;25.06;43.78
75745;BME280;64359;51.366;-0.222;2023-06-14T02:36:35;101292.58;;;25.06;43.74
75745;BME280;64359;51.366;-0.222;2023-06-14T02:37:44;101297.57;;;25.05;43.79
75745;BME280;64359;51.366;-0.222;2023-06-14T02:38:48;101291.15;;;25.04;43.80
75745;BME280;64359;51.366;-0.222;2023-06-14T02:39:53;101291.52;;;25.04;43.95
75745;BME280;64359;51.366;-0.222;2023-06-14T02:40:57;101290.81;;;25.04;43.89
75745;BME280;64359;51.366;-0.222;2023-06-14T02:42:02;101292.83;;;25.04;43.97
75745;BME280;64359;51.366;-0.222;2023-06-14T02:43:06;101292.33;;;25.04;43.90
75745;BME280;64359;51.366;-0.222;2023-06-14T02:44:12;101291.10;;;25.04;44.19
75745;BME280;64359;51.366;-0.222;2023-06-14T02:45:17;101289.27;;;25.04;44.04
75745;BME280;64359;51.366;-0.222;2023-06-14T02:46:21;101292.86;;;25.04;44.04
75745;BME280;64359;51.366;-0.222;2023-06-14T02:47:25;101289.47;;;25.04;44.06
75745;BME280;64359;51.366;-0.222;2023-06-14T02:48:30;101289.00;;;25.03;44.14
75745;BME280;64359;51.366;-0.222;2023-06-14T02:49:34;101293.41;;;25.03;44.02
75745;BME280;64359;51.366;-0.222;2023-06-14T02:50:38;101289.30;;;25.02;44.01
75745;BME280;64359;51.366;-0.222;2023-06-14T02:51:43;101290.92;;;25.02;44.15
75745;BME280;64359;51.366;-0.222;2023-06-14T02:52:47;101293.11;;;25.02;44.34
75745;BME280;64359;51.366;-0.222;2023-06-14T02:53:51;101290.54;;;25.01;44.30
75745;BME280;64359;51.366;-0.222;2023-06-14T02:54:56;101295.34;;;25.02;44.37
75745;BME280;64359;51.366;-0.222;2023-06-14T02:56:00;101295.13;;;25.02;44.29
75745;BME280;64359;51.366;-0.222;2023-06-14T02:57:07;101294.08;;;25.02;44.37
75745;BME280;64359;51.366;-0.222;2023-06-14T02:58:11;101293.78;;;25.01;44.40
75745;BME280;64359;51.366;-0.222;2023-06-14T02:59:16;101298.19;;;25.01;44.42
75745;BME280;64359;51.366;-0.222;2023-06-14T03:00:20;101294.95;;;25.01;44.53
75745;BME280;64359;51.366;-0.222;2023-06-14T03:01:26;101298.94;;;25.01;44.62
75745;BME280;64359;51.366;-0.222;2023-06-14T03:02:37;101297.21;;;25.00;44.61
75745;BME280;64359;51.366;-0.222;2023-06-14T03:03:41;101295.83;;;24.99;44.88
75745;BME280;64359;51.366;-0.222;2023-06-14T03:04:46;101293.44;;;25.00;44.64
75745;BME280;64359;51.366;-0.222;2023-06-14T03:05:50;101296.55;;;25.00;44.55
75745;BME280;64359;51.366;-0.222;2023-06-14T03:06:55;101294.64;;;24.99;44.60
75745;BME280;64359;51.366;-0.222;2023-06-14T03:07:59;101296.45;;;24.99;44.64
75745;BME280;64359;51.366;-0.222;2023-06-14T03:09:04;101295.02;;;24.99;44.74
75745;BME280;64359;51.366;-0.222;2023-06-14T03:10:09;101296.98;;;24.99;44.76
75745;BME280;64359;51.366;-0.222;2023-06-14T03:11:16;101297.07;;;24.98;44.94
75745;BME280;64359;51.366;-0.222;2023-06-14T03:12:23;101297.58;;;24.99;44.83
75745;BME280;64359;51.366;-0.222;2023-06-14T03:13:27;101295.83;;;24.98;44.90
75745;BME280;64359;51.366;-0.222;2023-06-14T03:14:35;101295.46;;;24.98;44.92
75745;BME280;64359;51.366;-0.222;2023-06-14T03:15:39;101294.91;;;24.97;45.12
75745;BME280;64359;51.366;-0.222;2023-06-14T03:16:44;101294.95;;;24.96;44.89
75745;BME280;64359;51.366;-0.222;2023-06-14T03:17:48;101295.33;;;24.96;44.94
75745;BME280;64359;51.366;-0.222;2023-06-14T03:18:54;101296.54;;;24.97;44.97
75745;BME280;64359;51.366;-0.222;2023-06-14T03:19:58;101298.89;;;24.96;45.02
75745;BME280;64359;51.366;-0.222;2023-06-14T03:21:02;101294.87;;;24.96;45.08
75745;BME280;64359;51.366;-0.222;2023-06-14T03:22:07;101293.00;;;24.93;45.09
75745;BME280;64359;51.366;-0.222;2023-06-14T03:23:14;101299.52;;;24.95;45.08
75745;BME280;64359;51.366;-0.222;2023-06-14T03:24:19;101297.59;;;24.94;45.22
75745;BME280;64359;51.366;-0.222;2023-06-14T03:25:23;101297.00;;;24.95;45.19
75745;BME280;64359;51.366;-0.222;2023-06-14T03:26:28;101299.56;;;24.95;45.17
75745;BME280;64359;51.366;-0.222;2023-06-14T03:27:34;101299.85;;;24.94;45.17
75745;BME280;64359;51.366;-0.222;2023-06-14T03:28:38;101298.97;;;24.94;45.28
75745;BME280;64359;51.366;-0.222;2023-06-14T03:29:43;101298.80;;;24.93;45.12
75745;BME280;64359;51.366;-0.222;2023-06-14T03:30:47;101301.19;;;24.93;45.18
75745;BME280;64359;51.366;-0.222;2023-06-14T03:32:01;101300.01;;;24.93;45.36
75745;BME280;64359;51.366;-0.222;2023-06-14T03:33:06;101299.71;;;24.92;45.43
75745;BME280;64359;51.366;-0.222;2023-06-14T03:34:11;101298.70;;;24.92;45.40
75745;BME280;64359;51.366;-0.222;2023-06-14T03:35:16;101302.02;;;24.91;45.49
75745;BME280;64359;51.366;-0.222;2023-06-14T03:36:20;101300.50;;;24.91;45.53
75745;BME280;64359;51.366;-0.222;2023-06-14T03:37:25;101298.75;;;24.91;45.31
75745;BME280;64359;51.366;-0.222;2023-06-14T03:38:30;101299.13;;;24.91;45.41
75745;BME280;64359;51.366;-0.222;2023-06-14T03:39:34;101291.70;;;24.91;45.49
75745;BME280;64359;51.366;-0.222;2023-06-14T03:40:38;101297.07;;;24.90;45.56
75745;BME280;64359;51.366;-0.222;2023-06-14T03:41:43;101296.73;;;24.90;45.53
75745;BME280;64359;51.366;-0.222;2023-06-14T03:42:47;101299.20;;;24.90;45.60
75745;BME280;64359;51.366;-0.222;2023-06-14T03:43:51;101298.36;;;24.90;45.53
75745;BME280;64359;51.366;-0.222;2023-06-14T03:44:55;101299.66;;;24.90;45.61
75745;BME280;64359;51.366;-0.222;2023-06-14T03:46:00;101299.16;;;24.90;45.60
75745;BME280;64359;51.366;-0.222;2023-06-14T03:47:05;101300.80;;;24.89;45.55
75745;BME280;64359;51.366;-0.222;2023-06-14T03:48:09;101303.61;;;24.89;45.54
75745;BME280;64359;51.366;-0.222;2023-06-14T03:49:14;101300.41;;;24.88;45.48
75745;BME280;64359;51.366;-0.222;2023-06-14T03:50:20;101306.24;;;24.88;45.67
75745;BME280;64359;51.366;-0.222;2023-06-14T03:51:24;101306.20;;;24.88;45.78
75745;BME280;64359;51.366;-0.222;2023-06-14T03:52:29;101307.55;;;24.88;45.67
75745;BME280;64359;51.366;-0.222;2023-06-14T03:53:34;101308.25;;;24.88;45.72
75745;BME280;64359;51.366;-0.222;2023-06-14T03:54:39;101306.73;;;24.87;45.69
75745;BME280;64359;51.366;-0.222;2023-06-14T03:55:43;101307.41;;;24.88;45.56
75745;BME280;64359;51.366;-0.222;2023-06-14T03:56:47;101312.95;;;24.87;45.69
75745;BME280;64359;51.366;-0.222;2023-06-14T03:57:52;101306.83;;;24.86;45.82
75745;BME280;64359;51.366;-0.222;2023-06-14T03:58:56;101308.46;;;24.87;45.69
75745;BME280;64359;51.366;-0.222;2023-06-14T04:00:00;101306.89;;;24.86;45.66
75745;BME280;64359;51.366;-0.222;2023-06-14T04:01:08;101308.70;;;24.86;45.81
75745;BME280;64359;51.366;-0.222;2023-06-14T04:02:12;101310.21;;;24.86;45.77
75745;BME280;64359;51.366;-0.222;2023-06-14T04:03:18;101308.81;;;24.85;45.78
75745;BME280;64359;51.366;-0.222;2023-06-14T04:04:26;101307.19;;;24.85;45.94
75745;BME280;64359;51.366;-0.222;2023-06-14T04:05:32;101308.78;;;24.81;45.97
75745;BME280;64359;51.366;-0.222;2023-06-14T04:06:37;101308.40;;;24.81;46.08
75745;BME280;64359;51.366;-0.222;2023-06-14T04:07:44;101306.73;;;24.82;45.95
75745;BME280;64359;51.366;-0.222;2023-06-14T04:08:48;101306.69;;;24.82;45.97
75745;BME280;64359;51.366;-0.222;2023-06-14T04:09:53;101302.66;;;24.82;45.85
75745;BME280;64359;51.366;-0.222;2023-06-14T04:10:57;101301.23;;;24.82;45.99
75745;BME280;64359;51.366;-0.222;2023-06-14T04:12:02;101303.04;;;24.82;46.07
75745;BME280;64359;51.366;-0.222;2023-06-14T04:13:06;101300.14;;;24.82;45.91
75745;BME280;64359;51.366;-0.222;2023-06-14T04:14:11;101299.98;;;24.82;45.93
75745;BME280;64359;51.366;-0.222;2023-06-14T04:15:15;101302.49;;;24.82;45.98
75745;BME280;64359;51.366;-0.222;2023-06-14T04:16:19;101306.69;;;24.82;46.02
75745;BME280;64359;51.366;-0.222;2023-06-14T04:17:24;101302.53;;;24.82;46.06
75745;BME280;64359;51.366;-0.222;2023-06-14T04:18:28;101301.86;;;24.81;45.95
75745;BME280;64359;51.366;-0.222;2023-06-14T04:19:32;101299.86;;;24.81;46.00
75745;BME280;64359;51.366;-0.222;2023-06-14T04:20:37;101305.47;;;24.82;45.87
75745;BME280;64359;51.366;-0.222;2023-06-14T04:21:42;101303.84;;;24.82;46.10
75745;BME280;64359;51.366;-0.222;2023-06-14T04:22:46;101304.96;;;24.81;45.92
75745;BME280;64359;51.366;-0.222;2023-06-14T04:23:52;101300.44;;;24.81;46.18
75745;BME280;64359;51.366;-0.222;2023-06-14T04:24:58;101304.84;;;24.81;46.06
75745;BME280;64359;51.366;-0.222;2023-06-14T04:26:02;101306.81;;;24.81;46.22
75745;BME280;64359;51.366;-0.222;2023-06-14T04:27:07;101311.42;;;24.81;46.21
75745;BME280;64359;51.366;-0.222;2023-06-14T04:28:12;101305.72;;;24.81;46.16
75745;BME280;64359;51.366;-0.222;2023-06-14T04:29:18;101307.02;;;24.81;46.13
75745;BME280;64359;51.366;-0.222;2023-06-14T04:30:23;101308.15;;;24.80;46.17
75745;BME280;64359;51.366;-0.222;2023-06-14T04:31:30;101309.83;;;24.80;46.20
75745;BME280;64359;51.366;-0.222;2023-06-14T04:32:36;101311.08;;;24.80;46.11
75745;BME280;64359;51.366;-0.222;2023-06-14T04:33:41;101311.83;;;24.80;46.23
75745;BME280;64359;51.366;-0.222;2023-06-14T04:34:48;101313.01;;;24.79;46.26
75745;BME280;64359;51.366;-0.222;2023-06-14T04:35:56;101307.14;;;24.78;46.24
75745;BME280;64359;51.366;-0.222;2023-06-14T04:37:00;101314.09;;;24.79;46.23
75745;BME280;64359;51.366;-0.222;2023-06-14T04:38:05;101309.66;;;24.79;46.38
75745;BME280;64359;51.366;-0.222;2023-06-14T04:39:12;101311.66;;;24.78;46.66
75745;BME280;64359;51.366;-0.222;2023-06-14T04:40:17;101313.81;;;24.79;46.53
75745;BME280;64359;51.366;-0.222;2023-06-14T04:41:21;101307.92;;;24.78;46.71
75745;BME280;64359;51.366;-0.222;2023-06-14T04:42:31;101315.94;;;24.78;46.63
75745;BME280;64359;51.366;-0.222;2023-06-14T04:43:36;101314.92;;;24.77;46.44
75745;BME280;64359;51.366;-0.222;2023-06-14T04:44:41;101312.70;;;24.76;46.37
75745;BME280;64359;51.366;-0.222;2023-06-14T04:45:46;101313.63;;;24.76;46.37
75745;BME280;64359;51.366;-0.222;2023-06-14T04:46:51;101311.48;;;24.76;46.40
75745;BME280;64359;51.366;-0.222;2023-06-14T04:47:55;101312.08;;;24.76;46.43
75745;BME280;64359;51.366;-0.222;2023-06-14T04:49:00;101316.05;;;24.75;46.34
75745;BME280;64359;51.366;-0.222;2023-06-14T04:50:06;101311.77;;;24.75;46.23
75745;BME280;64359;51.366;-0.222;2023-06-14T04:51:11;101315.63;;;24.74;46.47
75745;BME280;64359;51.366;-0.222;2023-06-14T04:52:16;101314.04;;;24.74;46.32
75745;BME280;64359;51.366;-0.222;2023-06-14T04:53:21;101317.55;;;24.74;46.25
75745;BME280;64359;51.366;-0.222;2023-06-14T04:54:26;101317.17;;;24.74;46.27
75745;BME280;64359;51.366;-0.222;2023-06-14T04:55:30;101317.27;;;24.73;46.21
75745;BME280;64359;51.366;-0.222;2023-06-14T04:56:35;101316.75;;;24.73;46.18
75745;BME280;64359;51.366;-0.222;2023-06-14T04:57:40;101317.47;;;24.73;46.16
75745;BME280;64359;51.366;-0.222;2023-06-14T04:58:45;101316.54;;;24.73;46.17
75745;BME280;64359;51.366;-0.222;2023-06-14T04:59:50;101320.70;;;24.73;46.35
75745;BME280;64359;51.366;-0.222;2023-06-14T05:00:57;101319.98;;;24.73;46.01
75745;BME280;64359;51.366;-0.222;2023-06-14T05:02:03;101321.58;;;24.74;46.39
75745;BME280;64359;51.366;-0.222;2023-06-14T05:03:09;101323.25;;;24.73;46.30
75745;BME280;64359;51.366;-0.222;2023-06-14T05:04:16;101317.16;;;24.70;46.18
75745;BME280;64359;51.366;-0.222;2023-06-14T05:05:20;101320.48;;;24.72;46.49
75745;BME280;64359;51.366;-0.222;2023-06-14T05:06:24;101323.63;;;24.72;46.19
75745;BME280;64359;51.366;-0.222;2023-06-14T05:07:29;101324.26;;;24.71;46.18
75745;BME280;64359;51.366;-0.222;2023-06-14T05:08:33;101324.21;;;24.72;46.52
75745;BME280;64359;51.366;-0.222;2023-06-14T05:09:38;101320.39;;;24.70;46.32
75745;BME280;64359;51.366;-0.222;2023-06-14T05:10:42;101321.48;;;24.70;46.20
75745;BME280;64359;51.366;-0.222;2023-06-14T05:11:46;101321.31;;;24.70;46.33
75745;BME280;64359;51.366;-0.222;2023-06-14T05:12:51;101323.36;;;24.70;46.51
75745;BME280;64359;51.366;-0.222;2023-06-14T05:13:55;101319.09;;;24.71;47.00
75745;BME280;64359;51.366;-0.222;2023-06-14T05:15:01;101318.38;;;24.70;46.73
75745;BME280;64359;51.366;-0.222;2023-06-14T05:16:05;101322.45;;;24.72;46.87
75745;BME280;64359;51.366;-0.222;2023-06-14T05:17:10;101320.31;;;24.72;46.61
75745;BME280;64359;51.366;-0.222;2023-06-14T05:18:15;101323.67;;;24.73;46.58
75745;BME280;64359;51.366;-0.222;2023-06-14T05:19:19;101322.46;;;24.74;46.69
75745;BME280;64359;51.366;-0.222;2023-06-14T05:20:24;101322.30;;;24.75;46.59
75745;BME280;64359;51.366;-0.222;2023-06-14T05:21:29;101322.85;;;24.76;46.93
75745;BME280;64359;51.366;-0.222;2023-06-14T05:22:33;101323.60;;;24.77;46.86
75745;BME280;64359;51.366;-0.222;2023-06-14T05:23:37;101323.11;;;24.80;46.95
75745;BME280;64359;51.366;-0.222;2023-06-14T05:24:42;101324.80;;;24.81;46.84
75745;BME280;64359;51.366;-0.222;2023-06-14T05:25:47;101324.39;;;24.83;46.49
75745;BME280;64359;51.366;-0.222;2023-06-14T05:26:51;101324.27;;;24.84;46.85
75745;BME280;64359;51.366;-0.222;2023-06-14T05:27:55;101324.40;;;24.84;46.89
75745;BME280;64359;51.366;-0.222;2023-06-14T05:29:00;101328.91;;;24.86;46.47
75745;BME280;64359;51.366;-0.222;2023-06-14T05:30:06;101330.47;;;24.86;46.49
75745;BME280;64359;51.366;-0.222;2023-06-14T05:31:11;101328.70;;;24.86;46.23
75745;BME280;64359;51.366;-0.222;2023-06-14T05:32:15;101327.87;;;24.87;46.44
75745;BME280;64359;51.366;-0.222;2023-06-14T05:33:19;101333.41;;;24.86;46.57
75745;BME280;64359;51.366;-0.222;2023-06-14T05:34:24;101330.44;;;24.87;46.62
75745;BME280;64359;51.366;-0.222;2023-06-14T05:35:28;101332.94;;;24.87;46.68
75745;BME280;64359;51.366;-0.222;2023-06-14T05:36:33;101332.95;;;24.87;46.77
75745;BME280;64359;51.366;-0.222;2023-06-14T05:37:39;101331.52;;;24.87;47.09